sensor_id;sensor_type;location;lat;lon;timestamp;P1;durP1;ratioP1;P2;durP2;ratioP2
78346;SDS011;67803;41.330;69.282;2023-02-22T00:01:46;2.75;;;0.90;;
78346;SDS011;67803;41.330;69.282;2023-02-22T00:04:19;3.28;;;1.05;;
78346;SDS011;67803;41.330;69.282;2023-02-22T00:06:50;11.38;;;1.10;;
78346;SDS011;67803;41.330;69.282;2023-02-22T00:09:20;4.65;;;1.00;;
78346;SDS011;67803;41.330;69.282;2023-02-22T00:11:51;3.55;;;1.13;;
78346;SDS011;67803;41.330;69.282;2023-02-22T00:14:21;3.65;;;0.88;;
78346;SDS011;67803;41.330;69.282;2023-02-22T00:16:55;6.25;;;1.20;;
78346;SDS011;67803;41.330;69.282;2023-02-22T00:19:28;4.28;;;1.20;;
78346;SDS011;67803;41.330;69.282;2023-02-22T00:21:59;3.53;;;1.05;;
78346;SDS011;67803;41.330;69.282;2023-02-22T00:24:31;5.60;;;1.98;;
78346;SDS011;67803;41.330;69.282;2023-02-22T00:27:01;3.53;;;0.95;;
78346;SDS011;67803;41.330;69.282;2023-02-22T00:29:32;5.07;;;1.38;;
78346;SDS011;67803;41.330;69.282;2023-02-22T00:32:03;6.47;;;0.93;;
78346;SDS011;67803;41.330;69.282;2023-02-22T00:34:34;4.80;;;1.25;;
78346;SDS011;67803;41.330;69.282;2023-02-22T00:37:04;6.20;;;1.30;;
78346;SDS011;67803;41.330;69.282;2023-02-22T00:39:35;2.83;;;1.05;;
78346;SDS011;67803;41.330;69.282;2023-02-22T00:42:06;3.45;;;1.00;;
78346;SDS011;67803;41.330;69.282;2023-02-22T00:44:36;6.72;;;1.42;;
78346;SDS011;67803;41.330;69.282;2023-02-22T00:47:06;4.78;;;1.02;;
78346;SDS011;67803;41.330;69.282;2023-02-22T00:49:37;2.97;;;1.45;;
78346;SDS011;67803;41.330;69.282;2023-02-22T00:52:08;4.90;;;1.27;;
78346;SDS011;67803;41.330;69.282;2023-02-22T00:54:38;7.90;;;1.30;;
78346;SDS011;67803;41.330;69.282;2023-02-22T00:57:09;8.70;;;1.30;;
78346;SDS011;67803;41.330;69.282;2023-02-22T00:59:39;7.53;;;1.30;;
78346;SDS011;67803;41.330;69.282;2023-02-22T01:02:10;3.83;;;1.63;;
78346;SDS011;67803;41.330;69.282;2023-02-22T01:04:40;5.72;;;1.05;;
78346;SDS011;67803;41.330;69.282;2023-02-22T01:07:10;4.03;;;1.30;;
78346;SDS011;67803;41.330;69.282;2023-02-22T01:09:41;4.90;;;1.17;;
78346;SDS011;67803;41.330;69.282;2023-02-22T01:12:13;5.40;;;1.20;;
78346;SDS011;67803;41.330;69.282;2023-02-22T01:14:45;7.65;;;1.50;;
78346;SDS011;67803;41.330;69.282;2023-02-22T01:17:15;8.68;;;1.48;;
78346;SDS011;67803;41.330;69.282;2023-02-22T01:19:45;5.20;;;1.45;;
78346;SDS011;67803;41.330;69.282;2023-02-22T01:22:16;5.60;;;1.30;;
78346;SDS011;67803;41.330;69.282;2023-02-22T01:24:47;11.48;;;1.35;;
78346;SDS011;67803;41.330;69.282;2023-02-22T01:27:17;8.45;;;1.40;;
78346;SDS011;67803;41.330;69.282;2023-02-22T01:29:48;5.90;;;1.42;;
78346;SDS011;67803;41.330;69.282;2023-02-22T01:32:19;9.93;;;1.70;;
78346;SDS011;67803;41.330;69.282;2023-02-22T01:34:51;10.48;;;2.20;;
78346;SDS011;67803;41.330;69.282;2023-02-22T01:37:22;8.23;;;1.40;;
78346;SDS011;67803;41.330;69.282;2023-02-22T01:39:52;2.72;;;1.30;;
78346;SDS011;67803;41.330;69.282;2023-02-22T01:42:23;9.95;;;1.60;;
78346;SDS011;67803;41.330;69.282;2023-02-22T01:47:42;10.13;;;1.67;;
78346;SDS011;67803;41.330;69.282;2023-02-22T01:50:13;10.88;;;1.45;;
78346;SDS011;67803;41.330;69.282;2023-02-22T01:52:43;13.48;;;1.60;;
78346;SDS011;67803;41.330;69.282;2023-02-22T01:55:14;8.13;;;1.50;;
78346;SDS011;67803;41.330;69.282;2023-02-22T01:57:45;7.20;;;1.48;;
78346;SDS011;67803;41.330;69.282;2023-02-22T02:00:17;7.13;;;1.40;;
78346;SDS011;67803;41.330;69.282;2023-02-22T02:02:52;12.50;;;1.80;;
78346;SDS011;67803;41.330;69.282;2023-02-22T02:05:28;6.82;;;1.77;;
78346;SDS011;67803;41.330;69.282;2023-02-22T02:08:02;7.43;;;2.08;;
78346;SDS011;67803;41.330;69.282;2023-02-22T02:10:34;10.25;;;1.50;;
78346;SDS011;67803;41.330;69.282;2023-02-22T02:13:05;9.38;;;2.38;;
78346;SDS011;67803;41.330;69.282;2023-02-22T02:15:35;28.80;;;3.25;;
78346;SDS011;67803;41.330;69.282;2023-02-22T02:18:06;21.02;;;2.70;;
78346;SDS011;67803;41.330;69.282;2023-02-22T02:20:43;15.00;;;2.22;;
78346;SDS011;67803;41.330;69.282;2023-02-22T02:26:43;19.48;;;2.22;;
78346;SDS011;67803;41.330;69.282;2023-02-22T02:36:33;12.70;;;2.13;;
78346;SDS011;67803;41.330;69.282;2023-02-22T02:39:08;13.95;;;2.35;;
78346;SDS011;67803;41.330;69.282;2023-02-22T02:41:41;14.85;;;3.05;;
78346;SDS011;67803;41.330;69.282;2023-02-22T02:49:16;18.33;;;4.05;;
78346;SDS011;67803;41.330;69.282;2023-02-22T02:51:49;13.25;;;4.45;;
78346;SDS011;67803;41.330;69.282;2023-02-22T02:54:21;18.65;;;4.20;;
78346;SDS011;67803;41.330;69.282;2023-02-22T02:56:52;16.67;;;3.30;;
78346;SDS011;67803;41.330;69.282;2023-02-22T02:59:24;15.27;;;4.07;;
78346;SDS011;67803;41.330;69.282;2023-02-22T03:10:20;24.17;;;4.80;;
78346;SDS011;67803;41.330;69.282;2023-02-22T03:26:04;32.80;;;4.72;;
78346;SDS011;67803;41.330;69.282;2023-02-22T03:28:34;34.83;;;6.10;;
78346;SDS011;67803;41.330;69.282;2023-02-22T03:31:11;29.95;;;5.38;;
78346;SDS011;67803;41.330;69.282;2023-02-22T03:33:43;31.60;;;5.22;;
78346;SDS011;67803;41.330;69.282;2023-02-22T03:36:23;26.88;;;4.75;;
78346;SDS011;67803;41.330;69.282;2023-02-22T03:38:56;25.77;;;4.35;;
78346;SDS011;67803;41.330;69.282;2023-02-22T03:41:27;33.97;;;5.50;;
78346;SDS011;67803;41.330;69.282;2023-02-22T03:44:01;29.50;;;5.68;;
78346;SDS011;67803;41.330;69.282;2023-02-22T03:46:32;22.73;;;4.57;;
78346;SDS011;67803;41.330;69.282;2023-02-22T03:49:08;21.52;;;5.05;;
78346;SDS011;67803;41.330;69.282;2023-02-22T03:51:39;21.88;;;5.22;;
78346;SDS011;67803;41.330;69.282;2023-02-22T03:54:10;33.17;;;6.65;;
78346;SDS011;67803;41.330;69.282;2023-02-22T03:56:48;26.17;;;5.65;;
78346;SDS011;67803;41.330;69.282;2023-02-22T03:59:21;32.70;;;6.18;;
78346;SDS011;67803;41.330;69.282;2023-02-22T04:01:54;27.58;;;5.25;;
78346;SDS011;67803;41.330;69.282;2023-02-22T04:04:25;22.35;;;4.47;;
78346;SDS011;67803;41.330;69.282;2023-02-22T04:06:56;26.48;;;6.07;;
78346;SDS011;67803;41.330;69.282;2023-02-22T04:09:26;27.77;;;5.68;;
78346;SDS011;67803;41.330;69.282;2023-02-22T04:11:57;26.05;;;6.05;;
78346;SDS011;67803;41.330;69.282;2023-02-22T04:14:27;24.77;;;4.82;;
78346;SDS011;67803;41.330;69.282;2023-02-22T04:16:58;27.23;;;5.13;;
78346;SDS011;67803;41.330;69.282;2023-02-22T04:19:28;26.00;;;5.10;;
78346;SDS011;67803;41.330;69.282;2023-02-22T04:21:59;22.52;;;4.50;;
78346;SDS011;67803;41.330;69.282;2023-02-22T04:24:29;32.08;;;5.63;;
78346;SDS011;67803;41.330;69.282;2023-02-22T04:26:59;21.70;;;5.35;;
78346;SDS011;67803;41.330;69.282;2023-02-22T04:29:30;28.23;;;5.22;;
78346;SDS011;67803;41.330;69.282;2023-02-22T04:32:00;21.30;;;4.60;;
78346;SDS011;67803;41.330;69.282;2023-02-22T04:34:31;22.20;;;4.90;;
78346;SDS011;67803;41.330;69.282;2023-02-22T04:37:01;44.33;;;6.07;;
78346;SDS011;67803;41.330;69.282;2023-02-22T04:39:32;24.58;;;5.50;;
78346;SDS011;67803;41.330;69.282;2023-02-22T04:42:03;18.67;;;5.78;;
78346;SDS011;67803;41.330;69.282;2023-02-22T04:44:34;31.27;;;6.05;;
78346;SDS011;67803;41.330;69.282;2023-02-22T04:47:04;32.53;;;5.72;;
78346;SDS011;67803;41.330;69.282;2023-02-22T04:49:35;24.30;;;4.93;;
78346;SDS011;67803;41.330;69.282;2023-02-22T04:52:05;22.58;;;5.22;;
78346;SDS011;67803;41.330;69.282;2023-02-22T04:54:36;20.70;;;4.80;;
78346;SDS011;67803;41.330;69.282;2023-02-22T04:57:06;25.10;;;5.40;;
78346;SDS011;67803;41.330;69.282;2023-02-22T04:59:37;34.78;;;6.88;;
78346;SDS011;67803;41.330;69.282;2023-02-22T05:02:07;22.95;;;5.80;;
78346;SDS011;67803;41.330;69.282;2023-02-22T05:04:38;22.98;;;5.88;;
78346;SDS011;67803;41.330;69.282;2023-02-22T05:07:08;21.70;;;5.80;;
78346;SDS011;67803;41.330;69.282;2023-02-22T05:09:39;21.73;;;5.30;;
78346;SDS011;67803;41.330;69.282;2023-02-22T05:12:09;34.53;;;6.13;;
78346;SDS011;67803;41.330;69.282;2023-02-22T05:14:40;18.92;;;4.85;;
78346;SDS011;67803;41.330;69.282;2023-02-22T05:17:11;30.10;;;6.65;;
78346;SDS011;67803;41.330;69.282;2023-02-22T05:19:41;17.55;;;5.20;;
78346;SDS011;67803;41.330;69.282;2023-02-22T05:22:12;21.30;;;5.90;;
78346;SDS011;67803;41.330;69.282;2023-02-22T05:24:42;23.85;;;6.32;;
78346;SDS011;67803;41.330;69.282;2023-02-22T05:27:13;29.75;;;6.13;;
78346;SDS011;67803;41.330;69.282;2023-02-22T05:29:43;23.92;;;6.07;;
78346;SDS011;67803;41.330;69.282;2023-02-22T05:32:14;34.83;;;7.72;;
78346;SDS011;67803;41.330;69.282;2023-02-22T05:34:44;26.52;;;8.60;;
78346;SDS011;67803;41.330;69.282;2023-02-22T05:37:15;34.38;;;9.02;;
78346;SDS011;67803;41.330;69.282;2023-02-22T05:39:45;38.20;;;11.38;;
78346;SDS011;67803;41.330;69.282;2023-02-22T05:42:16;33.78;;;10.20;;
78346;SDS011;67803;41.330;69.282;2023-02-22T05:44:50;28.58;;;10.68;;
78346;SDS011;67803;41.330;69.282;2023-02-22T05:47:20;27.52;;;10.45;;
78346;SDS011;67803;41.330;69.282;2023-02-22T05:49:51;28.30;;;10.82;;
78346;SDS011;67803;41.330;69.282;2023-02-22T05:52:21;31.55;;;11.80;;
78346;SDS011;67803;41.330;69.282;2023-02-22T05:54:52;30.77;;;11.35;;
78346;SDS011;67803;41.330;69.282;2023-02-22T05:57:22;25.35;;;11.73;;
78346;SDS011;67803;41.330;69.282;2023-02-22T05:59:53;39.22;;;14.27;;
78346;SDS011;67803;41.330;69.282;2023-02-22T06:02:23;38.00;;;14.38;;
78346;SDS011;67803;41.330;69.282;2023-02-22T06:04:53;34.33;;;14.68;;
78346;SDS011;67803;41.330;69.282;2023-02-22T06:07:24;34.03;;;13.73;;
78346;SDS011;67803;41.330;69.282;2023-02-22T06:09:54;38.75;;;15.07;;
78346;SDS011;67803;41.330;69.282;2023-02-22T06:12:25;40.80;;;14.68;;
78346;SDS011;67803;41.330;69.282;2023-02-22T06:14:56;34.53;;;15.52;;
78346;SDS011;67803;41.330;69.282;2023-02-22T06:17:26;35.95;;;16.30;;
78346;SDS011;67803;41.330;69.282;2023-02-22T06:19:57;35.60;;;15.25;;
78346;SDS011;67803;41.330;69.282;2023-02-22T06:22:27;36.05;;;15.05;;
78346;SDS011;67803;41.330;69.282;2023-02-22T06:24:58;37.33;;;16.63;;
78346;SDS011;67803;41.330;69.282;2023-02-22T06:27:31;44.60;;;17.02;;
78346;SDS011;67803;41.330;69.282;2023-02-22T06:30:02;40.55;;;17.20;;
78346;SDS011;67803;41.330;69.282;2023-02-22T06:32:33;46.17;;;17.52;;
78346;SDS011;67803;41.330;69.282;2023-02-22T06:35:03;43.97;;;18.15;;
78346;SDS011;67803;41.330;69.282;2023-02-22T06:37:34;39.45;;;16.48;;
78346;SDS011;67803;41.330;69.282;2023-02-22T06:40:04;40.55;;;18.27;;
78346;SDS011;67803;41.330;69.282;2023-02-22T06:42:35;36.47;;;16.20;;
78346;SDS011;67803;41.330;69.282;2023-02-22T06:45:06;41.75;;;16.02;;
78346;SDS011;67803;41.330;69.282;2023-02-22T06:47:40;37.65;;;16.25;;
78346;SDS011;67803;41.330;69.282;2023-02-22T06:50:26;34.42;;;14.52;;
78346;SDS011;67803;41.330;69.282;2023-02-22T06:52:58;35.78;;;14.90;;
78346;SDS011;67803;41.330;69.282;2023-02-22T06:55:29;39.97;;;15.57;;
78346;SDS011;67803;41.330;69.282;2023-02-22T06:58:01;33.75;;;15.48;;
78346;SDS011;67803;41.330;69.282;2023-02-22T07:00:31;36.63;;;13.48;;
78346;SDS011;67803;41.330;69.282;2023-02-22T07:03:02;33.83;;;13.95;;
78346;SDS011;67803;41.330;69.282;2023-02-22T07:05:33;35.60;;;13.00;;
78346;SDS011;67803;41.330;69.282;2023-02-22T07:08:05;36.33;;;14.05;;
78346;SDS011;67803;41.330;69.282;2023-02-22T07:10:36;39.53;;;14.00;;
78346;SDS011;67803;41.330;69.282;2023-02-22T07:13:07;30.15;;;13.75;;
78346;SDS011;67803;41.330;69.282;2023-02-22T07:15:38;37.05;;;14.82;;
78346;SDS011;67803;41.330;69.282;2023-02-22T07:18:08;38.15;;;14.73;;
78346;SDS011;67803;41.330;69.282;2023-02-22T07:20:39;43.75;;;17.35;;
78346;SDS011;67803;41.330;69.282;2023-02-22T07:23:12;46.40;;;20.13;;
78346;SDS011;67803;41.330;69.282;2023-02-22T07:25:43;42.47;;;18.45;;
78346;SDS011;67803;41.330;69.282;2023-02-22T07:28:13;46.83;;;19.45;;
78346;SDS011;67803;41.330;69.282;2023-02-22T07:30:44;40.05;;;19.00;;
78346;SDS011;67803;41.330;69.282;2023-02-22T07:33:14;46.55;;;18.88;;
78346;SDS011;67803;41.330;69.282;2023-02-22T07:35:46;36.55;;;18.98;;
78346;SDS011;67803;41.330;69.282;2023-02-22T07:38:17;38.88;;;18.45;;
78346;SDS011;67803;41.330;69.282;2023-02-22T07:40:48;40.83;;;19.00;;
78346;SDS011;67803;41.330;69.282;2023-02-22T07:43:22;44.20;;;19.35;;
78346;SDS011;67803;41.330;69.282;2023-02-22T07:45:53;40.60;;;17.38;;
78346;SDS011;67803;41.330;69.282;2023-02-22T07:48:25;35.25;;;18.40;;
78346;SDS011;67803;41.330;69.282;2023-02-22T07:50:56;38.92;;;18.38;;
78346;SDS011;67803;41.330;69.282;2023-02-22T07:53:28;41.88;;;17.52;;
78346;SDS011;67803;41.330;69.282;2023-02-22T07:56:00;41.28;;;18.95;;
78346;SDS011;67803;41.330;69.282;2023-02-22T07:58:31;40.47;;;17.83;;
78346;SDS011;67803;41.330;69.282;2023-02-22T08:01:01;45.53;;;18.30;;
78346;SDS011;67803;41.330;69.282;2023-02-22T08:03:33;44.75;;;20.17;;
78346;SDS011;67803;41.330;69.282;2023-02-22T08:06:06;45.45;;;19.10;;
78346;SDS011;67803;41.330;69.282;2023-02-22T08:08:36;48.10;;;18.88;;
78346;SDS011;67803;41.330;69.282;2023-02-22T08:11:07;46.25;;;19.05;;
78346;SDS011;67803;41.330;69.282;2023-02-22T08:13:38;42.42;;;18.15;;
78346;SDS011;67803;41.330;69.282;2023-02-22T08:16:08;74.03;;;19.80;;
78346;SDS011;67803;41.330;69.282;2023-02-22T08:18:39;59.90;;;17.75;;
78346;SDS011;67803;41.330;69.282;2023-02-22T08:21:10;68.38;;;19.20;;
78346;SDS011;67803;41.330;69.282;2023-02-22T08:23:40;50.65;;;17.92;;
78346;SDS011;67803;41.330;69.282;2023-02-22T08:26:11;44.40;;;15.35;;
78346;SDS011;67803;41.330;69.282;2023-02-22T08:28:44;45.47;;;16.33;;
78346;SDS011;67803;41.330;69.282;2023-02-22T08:31:15;45.13;;;18.58;;
78346;SDS011;67803;41.330;69.282;2023-02-22T08:33:48;43.28;;;17.98;;
78346;SDS011;67803;41.330;69.282;2023-02-22T08:36:19;44.95;;;17.42;;
78346;SDS011;67803;41.330;69.282;2023-02-22T08:38:50;33.88;;;16.13;;
78346;SDS011;67803;41.330;69.282;2023-02-22T08:41:21;35.53;;;14.07;;
78346;SDS011;67803;41.330;69.282;2023-02-22T08:43:51;36.78;;;12.52;;
78346;SDS011;67803;41.330;69.282;2023-02-22T08:46:22;48.13;;;15.27;;
78346;SDS011;67803;41.330;69.282;2023-02-22T08:48:53;34.08;;;13.68;;
78346;SDS011;67803;41.330;69.282;2023-02-22T08:51:24;35.67;;;12.82;;
78346;SDS011;67803;41.330;69.282;2023-02-22T08:53:56;36.72;;;13.57;;
78346;SDS011;67803;41.330;69.282;2023-02-22T08:56:27;36.67;;;14.63;;
78346;SDS011;67803;41.330;69.282;2023-02-22T08:58:59;35.50;;;14.10;;
78346;SDS011;67803;41.330;69.282;2023-02-22T09:01:31;28.60;;;13.13;;
78346;SDS011;67803;41.330;69.282;2023-02-22T09:04:04;35.97;;;12.45;;
78346;SDS011;67803;41.330;69.282;2023-02-22T09:06:34;37.65;;;15.02;;
78346;SDS011;67803;41.330;69.282;2023-02-22T09:09:05;29.90;;;11.80;;
78346;SDS011;67803;41.330;69.282;2023-02-22T09:11:36;28.63;;;11.18;;
78346;SDS011;67803;41.330;69.282;2023-02-22T09:14:07;31.70;;;11.93;;
78346;SDS011;67803;41.330;69.282;2023-02-22T09:16:38;29.75;;;10.60;;
78346;SDS011;67803;41.330;69.282;2023-02-22T09:19:08;29.40;;;12.40;;
78346;SDS011;67803;41.330;69.282;2023-02-22T09:21:39;28.30;;;11.55;;
78346;SDS011;67803;41.330;69.282;2023-02-22T09:24:09;32.95;;;12.93;;
78346;SDS011;67803;41.330;69.282;2023-02-22T09:26:40;45.55;;;13.27;;
78346;SDS011;67803;41.330;69.282;2023-02-22T09:29:16;45.35;;;14.10;;
78346;SDS011;67803;41.330;69.282;2023-02-22T09:31:47;35.22;;;14.20;;
78346;SDS011;67803;41.330;69.282;2023-02-22T09:34:18;43.30;;;17.10;;
78346;SDS011;67803;41.330;69.282;2023-02-22T09:36:49;50.25;;;17.50;;
78346;SDS011;67803;41.330;69.282;2023-02-22T09:39:20;48.83;;;16.75;;
78346;SDS011;67803;41.330;69.282;2023-02-22T09:47:18;54.30;;;23.95;;
78346;SDS011;67803;41.330;69.282;2023-02-22T09:49:53;47.05;;;21.85;;
78346;SDS011;67803;41.330;69.282;2023-02-22T09:52:36;49.22;;;21.55;;
78346;SDS011;67803;41.330;69.282;2023-02-22T09:55:16;41.05;;;20.38;;
78346;SDS011;67803;41.330;69.282;2023-02-22T09:57:49;40.30;;;20.15;;
78346;SDS011;67803;41.330;69.282;2023-02-22T10:00:26;51.97;;;20.77;;
78346;SDS011;67803;41.330;69.282;2023-02-22T10:06:26;32.45;;;16.02;;
78346;SDS011;67803;41.330;69.282;2023-02-22T10:08:37;36.08;;;16.95;;
78346;SDS011;67803;41.330;69.282;2023-02-22T10:11:17;37.83;;;16.42;;
78346;SDS011;67803;41.330;69.282;2023-02-22T10:19:02;34.70;;;15.10;;
78346;SDS011;67803;41.330;69.282;2023-02-22T10:24:11;35.78;;;14.50;;
78346;SDS011;67803;41.330;69.282;2023-02-22T10:26:45;37.38;;;13.90;;
78346;SDS011;67803;41.330;69.282;2023-02-22T10:29:17;34.80;;;14.25;;
78346;SDS011;67803;41.330;69.282;2023-02-22T10:31:55;26.35;;;12.55;;
78346;SDS011;67803;41.330;69.282;2023-02-22T10:34:29;27.05;;;11.25;;
78346;SDS011;67803;41.330;69.282;2023-02-22T10:37:20;36.33;;;12.90;;
78346;SDS011;67803;41.330;69.282;2023-02-22T10:39:53;28.92;;;11.63;;
78346;SDS011;67803;41.330;69.282;2023-02-22T10:42:25;30.90;;;11.35;;
78346;SDS011;67803;41.330;69.282;2023-02-22T10:44:57;29.48;;;10.00;;
78346;SDS011;67803;41.330;69.282;2023-02-22T10:47:27;33.67;;;10.57;;
78346;SDS011;67803;41.330;69.282;2023-02-22T10:49:58;25.02;;;9.93;;
78346;SDS011;67803;41.330;69.282;2023-02-22T10:52:32;21.70;;;9.10;;
78346;SDS011;67803;41.330;69.282;2023-02-22T10:55:10;30.50;;;9.48;;
78346;SDS011;67803;41.330;69.282;2023-02-22T10:57:45;27.58;;;8.88;;
78346;SDS011;67803;41.330;69.282;2023-02-22T11:02:56;29.58;;;10.15;;
78346;SDS011;67803;41.330;69.282;2023-02-22T11:05:29;31.52;;;9.20;;
78346;SDS011;67803;41.330;69.282;2023-02-22T11:08:21;33.97;;;8.68;;
78346;SDS011;67803;41.330;69.282;2023-02-22T11:10:54;32.15;;;8.25;;
78346;SDS011;67803;41.330;69.282;2023-02-22T11:13:32;29.10;;;8.43;;
78346;SDS011;67803;41.330;69.282;2023-02-22T11:21:39;31.52;;;8.30;;
78346;SDS011;67803;41.330;69.282;2023-02-22T11:24:11;32.40;;;9.27;;
78346;SDS011;67803;41.330;69.282;2023-02-22T11:27:03;28.90;;;8.55;;
78346;SDS011;67803;41.330;69.282;2023-02-22T11:29:35;29.27;;;8.63;;
78346;SDS011;67803;41.330;69.282;2023-02-22T11:32:16;26.23;;;8.43;;
78346;SDS011;67803;41.330;69.282;2023-02-22T11:34:50;34.85;;;11.18;;
78346;SDS011;67803;41.330;69.282;2023-02-22T11:37:32;27.42;;;9.63;;
78346;SDS011;67803;41.330;69.282;2023-02-22T11:42:37;31.73;;;11.05;;
78346;SDS011;67803;41.330;69.282;2023-02-22T11:45:18;30.67;;;9.80;;
78346;SDS011;67803;41.330;69.282;2023-02-22T11:47:54;33.67;;;11.18;;
78346;SDS011;67803;41.330;69.282;2023-02-22T11:53:50;34.28;;;10.50;;
78346;SDS011;67803;41.330;69.282;2023-02-22T11:56:32;51.38;;;10.52;;
78346;SDS011;67803;41.330;69.282;2023-02-22T12:01:39;27.25;;;8.98;;
78346;SDS011;67803;41.330;69.282;2023-02-22T12:07:12;32.88;;;10.43;;
78346;SDS011;67803;41.330;69.282;2023-02-22T12:10:03;26.27;;;9.75;;
78346;SDS011;67803;41.330;69.282;2023-02-22T12:20:51;29.25;;;10.15;;
78346;SDS011;67803;41.330;69.282;2023-02-22T12:26:18;26.05;;;7.75;;
78346;SDS011;67803;41.330;69.282;2023-02-22T12:31:22;18.15;;;6.10;;
78346;SDS011;67803;41.330;69.282;2023-02-22T12:33:58;22.35;;;6.00;;
78346;SDS011;67803;41.330;69.282;2023-02-22T12:36:32;29.50;;;6.55;;
78346;SDS011;67803;41.330;69.282;2023-02-22T12:39:10;38.25;;;6.25;;
78346;SDS011;67803;41.330;69.282;2023-02-22T12:41:50;26.27;;;6.25;;
78346;SDS011;67803;41.330;69.282;2023-02-22T12:44:25;20.75;;;5.90;;
78346;SDS011;67803;41.330;69.282;2023-02-22T12:46:57;18.77;;;6.07;;
78346;SDS011;67803;41.330;69.282;2023-02-22T12:49:33;18.60;;;5.38;;
78346;SDS011;67803;41.330;69.282;2023-02-22T12:54:50;29.13;;;7.07;;
78346;SDS011;67803;41.330;69.282;2023-02-22T12:57:32;30.38;;;6.22;;
78346;SDS011;67803;41.330;69.282;2023-02-22T13:00:05;19.60;;;5.22;;
78346;SDS011;67803;41.330;69.282;2023-02-22T13:02:38;28.77;;;6.80;;
78346;SDS011;67803;41.330;69.282;2023-02-22T13:05:14;24.95;;;5.60;;
78346;SDS011;67803;41.330;69.282;2023-02-22T13:07:49;24.73;;;6.38;;
78346;SDS011;67803;41.330;69.282;2023-02-22T13:18:22;27.83;;;6.63;;
78346;SDS011;67803;41.330;69.282;2023-02-22T13:21:01;33.05;;;7.97;;
78346;SDS011;67803;41.330;69.282;2023-02-22T13:31:26;25.80;;;7.60;;
78346;SDS011;67803;41.330;69.282;2023-02-22T13:34:04;28.45;;;7.35;;
78346;SDS011;67803;41.330;69.282;2023-02-22T13:36:37;37.13;;;7.90;;
78346;SDS011;67803;41.330;69.282;2023-02-22T13:49:46;48.15;;;7.97;;
78346;SDS011;67803;41.330;69.282;2023-02-22T13:52:25;35.33;;;8.30;;
78346;SDS011;67803;41.330;69.282;2023-02-22T13:54:59;34.85;;;8.27;;
78346;SDS011;67803;41.330;69.282;2023-02-22T13:57:35;29.55;;;7.95;;
78346;SDS011;67803;41.330;69.282;2023-02-22T14:05:48;30.25;;;8.10;;
78346;SDS011;67803;41.330;69.282;2023-02-22T14:11:38;37.38;;;8.35;;
78346;SDS011;67803;41.330;69.282;2023-02-22T14:16:30;36.60;;;8.32;;
78346;SDS011;67803;41.330;69.282;2023-02-22T14:19:10;32.20;;;7.53;;
78346;SDS011;67803;41.330;69.282;2023-02-22T14:24:27;31.80;;;7.45;;
78346;SDS011;67803;41.330;69.282;2023-02-22T14:26:59;30.80;;;8.73;;
78346;SDS011;67803;41.330;69.282;2023-02-22T14:29:30;26.45;;;8.80;;
78346;SDS011;67803;41.330;69.282;2023-02-22T14:32:02;21.52;;;8.27;;
78346;SDS011;67803;41.330;69.282;2023-02-22T14:37:17;25.83;;;9.55;;
78346;SDS011;67803;41.330;69.282;2023-02-22T14:42:30;28.70;;;10.68;;
78346;SDS011;67803;41.330;69.282;2023-02-22T14:47:47;20.67;;;10.40;;
78346;SDS011;67803;41.330;69.282;2023-02-22T14:50:20;50.97;;;12.20;;
78346;SDS011;67803;41.330;69.282;2023-02-22T14:53:05;33.97;;;11.15;;
78346;SDS011;67803;41.330;69.282;2023-02-22T14:55:38;28.85;;;11.07;;
78346;SDS011;67803;41.330;69.282;2023-02-22T14:58:20;45.88;;;12.30;;
78346;SDS011;67803;41.330;69.282;2023-02-22T15:00:52;26.13;;;11.90;;
78346;SDS011;67803;41.330;69.282;2023-02-22T15:03:27;27.70;;;11.63;;
78346;SDS011;67803;41.330;69.282;2023-02-22T15:06:05;32.53;;;12.25;;
78346;SDS011;67803;41.330;69.282;2023-02-22T15:08:36;37.15;;;13.02;;
78346;SDS011;67803;41.330;69.282;2023-02-22T15:11:20;30.92;;;13.27;;
78346;SDS011;67803;41.330;69.282;2023-02-22T15:13:53;38.47;;;13.70;;
78346;SDS011;67803;41.330;69.282;2023-02-22T15:16:25;29.35;;;13.90;;
78346;SDS011;67803;41.330;69.282;2023-02-22T15:18:58;27.77;;;13.75;;
78346;SDS011;67803;41.330;69.282;2023-02-22T15:21:29;31.42;;;13.30;;
78346;SDS011;67803;41.330;69.282;2023-02-22T15:24:00;34.22;;;12.57;;
78346;SDS011;67803;41.330;69.282;2023-02-22T15:26:33;30.17;;;12.57;;
78346;SDS011;67803;41.330;69.282;2023-02-22T15:29:15;30.83;;;11.52;;
78346;SDS011;67803;41.330;69.282;2023-02-22T15:31:47;38.33;;;12.93;;
78346;SDS011;67803;41.330;69.282;2023-02-22T15:34:19;33.50;;;12.32;;
78346;SDS011;67803;41.330;69.282;2023-02-22T15:36:54;32.88;;;12.35;;
78346;SDS011;67803;41.330;69.282;2023-02-22T15:39:26;32.05;;;12.43;;
78346;SDS011;67803;41.330;69.282;2023-02-22T15:42:04;56.05;;;13.60;;
78346;SDS011;67803;41.330;69.282;2023-02-22T15:44:37;42.15;;;11.85;;
78346;SDS011;67803;41.330;69.282;2023-02-22T15:47:16;30.63;;;11.30;;
78346;SDS011;67803;41.330;69.282;2023-02-22T15:52:37;29.58;;;13.77;;
78346;SDS011;67803;41.330;69.282;2023-02-22T15:55:09;31.92;;;11.70;;
78346;SDS011;67803;41.330;69.282;2023-02-22T15:57:39;34.38;;;11.95;;
78346;SDS011;67803;41.330;69.282;2023-02-22T16:00:20;33.22;;;12.07;;
78346;SDS011;67803;41.330;69.282;2023-02-22T16:02:52;32.10;;;11.93;;
78346;SDS011;67803;41.330;69.282;2023-02-22T16:05:39;36.17;;;12.32;;
78346;SDS011;67803;41.330;69.282;2023-02-22T16:08:21;36.30;;;13.15;;
78346;SDS011;67803;41.330;69.282;2023-02-22T16:11:15;33.05;;;13.45;;
78346;SDS011;67803;41.330;69.282;2023-02-22T16:13:43;34.47;;;13.15;;
78346;SDS011;67803;41.330;69.282;2023-02-22T16:16:21;31.48;;;12.85;;
78346;SDS011;67803;41.330;69.282;2023-02-22T16:19:23;33.28;;;13.10;;
78346;SDS011;67803;41.330;69.282;2023-02-22T16:21:53;45.95;;;14.65;;
78346;SDS011;67803;41.330;69.282;2023-02-22T16:24:26;36.92;;;15.10;;
78346;SDS011;67803;41.330;69.282;2023-02-22T16:27:05;35.67;;;14.45;;
78346;SDS011;67803;41.330;69.282;2023-02-22T16:29:36;35.05;;;14.95;;
78346;SDS011;67803;41.330;69.282;2023-02-22T16:32:06;39.22;;;16.48;;
78346;SDS011;67803;41.330;69.282;2023-02-22T16:34:37;36.38;;;15.68;;
78346;SDS011;67803;41.330;69.282;2023-02-22T16:37:17;39.63;;;15.25;;
78346;SDS011;67803;41.330;69.282;2023-02-22T16:39:51;43.78;;;16.50;;
78346;SDS011;67803;41.330;69.282;2023-02-22T16:42:21;41.50;;;15.98;;
78346;SDS011;67803;41.330;69.282;2023-02-22T16:44:54;46.08;;;16.75;;
78346;SDS011;67803;41.330;69.282;2023-02-22T16:47:26;48.13;;;16.75;;
78346;SDS011;67803;41.330;69.282;2023-02-22T16:49:56;45.63;;;18.23;;
78346;SDS011;67803;41.330;69.282;2023-02-22T16:52:27;42.50;;;18.42;;
78346;SDS011;67803;41.330;69.282;2023-02-22T16:54:57;49.40;;;18.55;;
78346;SDS011;67803;41.330;69.282;2023-02-22T16:57:28;48.38;;;19.20;;
78346;SDS011;67803;41.330;69.282;2023-02-22T17:00:00;53.90;;;21.23;;
78346;SDS011;67803;41.330;69.282;2023-02-22T17:02:31;54.83;;;24.02;;
78346;SDS011;67803;41.330;69.282;2023-02-22T17:05:01;50.15;;;20.80;;
78346;SDS011;67803;41.330;69.282;2023-02-22T17:07:32;48.40;;;19.15;;
78346;SDS011;67803;41.330;69.282;2023-02-22T17:10:02;49.40;;;19.83;;
78346;SDS011;67803;41.330;69.282;2023-02-22T17:12:33;48.30;;;19.27;;